createdAt,value
2018-12-15T00:00:55.423Z,851.28
2018-12-15T00:01:55.435Z,851.33
2018-12-15T00:02:55.368Z,851.29
2018-12-15T00:03:55.396Z,851.30
2018-12-15T00:04:55.349Z,851.32
2018-12-15T00:05:55.353Z,851.34
2018-12-15T00:06:55.331Z,851.34
2018-12-15T00:07:55.327Z,851.34
2018-12-15T00:08:55.345Z,851.39
2018-12-15T00:09:55.297Z,851.41
2018-12-15T00:10:55.339Z,851.40
2018-12-15T00:11:55.290Z,851.40
2018-12-15T00:12:55.288Z,851.41
2018-12-15T00:13:55.281Z,851.43
2018-12-15T00:14:55.252Z,851.43
2018-12-15T00:15:55.288Z,851.41
2018-12-15T00:16:55.236Z,851.42
2018-12-15T00:17:55.230Z,851.41
2018-12-15T00:18:55.217Z,851.41
2018-12-15T00:19:55.234Z,851.44
2018-12-15T00:20:55.207Z,851.37
2018-12-15T00:21:55.176Z,851.41
2018-12-15T00:22:55.198Z,851.40
2018-12-15T00:23:55.154Z,851.41
2018-12-15T00:24:55.189Z,851.37
2018-12-15T00:25:55.200Z,851.40
2018-12-15T00:26:55.131Z,851.42
2018-12-15T00:27:55.114Z,851.43
2018-12-15T00:28:55.114Z,851.44
2018-12-15T00:29:55.146Z,851.49
2018-12-15T00:30:55.086Z,851.47
2018-12-15T00:31:55.156Z,851.48
2018-12-15T00:32:55.081Z,851.50
2018-12-15T00:33:55.051Z,851.50
2018-12-15T00:34:55.097Z,851.53
2018-12-15T00:35:55.039Z,851.51
2018-12-15T00:36:55.105Z,851.52
2018-12-15T00:37:55.016Z,851.48
2018-12-15T00:38:55.012Z,851.54
2018-12-15T00:39:55.000Z,851.55
2018-12-15T00:40:54.982Z,851.56
2018-12-15T00:41:55.005Z,851.58
2018-12-15T00:42:54.997Z,851.53
2018-12-15T00:43:54.952Z,851.53
2018-12-15T00:44:54.955Z,851.55
2018-12-15T00:45:54.930Z,851.54
2018-12-15T00:46:54.953Z,851.53
2018-12-15T00:47:54.926Z,851.56
2018-12-15T00:48:54.906Z,851.54
2018-12-15T00:49:54.940Z,851.51
2018-12-15T00:50:54.896Z,851.59
2018-12-15T00:51:54.884Z,851.55
2018-12-15T00:52:54.868Z,851.58
2018-12-15T00:53:54.857Z,851.61
2018-12-15T00:54:54.878Z,851.56
2018-12-15T00:55:54.909Z,851.63
2018-12-15T00:56:54.842Z,851.61
2018-12-15T00:57:54.850Z,851.58
2018-12-15T00:58:54.811Z,851.62
2018-12-15T00:59:54.846Z,851.58
2018-12-15T01:00:54.814Z,851.63
2018-12-15T01:01:54.771Z,851.60
2018-12-15T01:02:54.774Z,851.64
2018-12-15T01:03:54.751Z,851.61
2018-12-15T01:04:54.821Z,851.63
2018-12-15T01:05:54.766Z,851.61
2018-12-15T01:06:54.718Z,851.64
2018-12-15T01:07:54.730Z,851.64
2018-12-15T01:08:54.700Z,851.63
2018-12-15T01:09:54.760Z,851.58
2018-12-15T01:10:54.683Z,851.65
2018-12-15T01:11:54.683Z,851.63
2018-12-15T01:12:54.657Z,851.60
2018-12-15T01:13:54.677Z,851.62
2018-12-15T01:14:54.683Z,851.65
2018-12-15T01:15:54.671Z,851.62
2018-12-15T01:16:54.637Z,851.66
2018-12-15T01:17:54.618Z,851.67
2018-12-15T01:18:54.601Z,851.68
2018-12-15T01:19:54.624Z,851.65
2018-12-15T01:20:54.633Z,851.70
2018-12-15T01:21:54.571Z,851.67
2018-12-15T01:22:54.561Z,851.70
2018-12-15T01:23:54.598Z,851.71
2018-12-15T01:24:54.549Z,851.71
2018-12-15T01:25:54.718Z,851.70
2018-12-15T01:26:54.576Z,851.71
2018-12-15T01:27:54.518Z,851.74
2018-12-15T01:28:54.498Z,851.80
2018-12-15T01:29:54.488Z,851.80
2018-12-15T01:30:54.478Z,851.79
2018-12-15T01:31:54.508Z,851.77
2018-12-15T01:32:54.512Z,851.76
2018-12-15T01:33:54.460Z,851.79
2018-12-15T01:34:54.438Z,851.80
2018-12-15T01:35:54.443Z,851.82
2018-12-15T01:36:54.450Z,851.81
2018-12-15T01:37:54.458Z,851.83
2018-12-15T01:38:54.442Z,851.77
2018-12-15T01:39:54.392Z,851.79
2018-12-15T01:40:54.376Z,851.82
2018-12-15T01:41:54.402Z,851.81
2018-12-15T01:42:54.408Z,851.83
2018-12-15T01:43:54.349Z,851.81
2018-12-15T01:44:54.347Z,851.80
2018-12-15T01:45:54.328Z,851.78
2018-12-15T01:46:54.324Z,851.82
2018-12-15T01:47:54.348Z,851.87
2018-12-15T01:48:54.302Z,851.90
2018-12-15T01:49:54.297Z,851.86
2018-12-15T01:50:54.285Z,851.88
2018-12-15T01:51:54.276Z,851.83
2018-12-15T01:52:54.336Z,851.83
2018-12-15T01:53:54.249Z,851.86
2018-12-15T01:54:54.232Z,851.79
2018-12-15T01:55:54.237Z,851.83
2018-12-15T01:56:54.224Z,851.85
2018-12-15T01:57:54.271Z,851.81
2018-12-15T01:58:54.201Z,851.81
2018-12-15T01:59:54.200Z,851.81
2018-12-15T02:00:54.171Z,851.84
2018-12-15T02:01:54.170Z,851.83
2018-12-15T02:02:54.194Z,851.85
2018-12-15T02:03:54.193Z,851.85
2018-12-15T02:04:54.177Z,851.86
2018-12-15T02:05:54.131Z,851.83
2018-12-15T02:06:54.138Z,851.83
2018-12-15T02:07:54.101Z,851.81
2018-12-15T02:08:54.131Z,851.87
2018-12-15T02:09:54.093Z,851.85
2018-12-15T02:10:54.130Z,851.91
2018-12-15T02:11:54.067Z,851.91
2018-12-15T02:12:54.054Z,851.87
2018-12-15T02:13:54.046Z,851.92
2018-12-15T02:14:54.052Z,851.92
2018-12-15T02:15:54.047Z,851.93
2018-12-15T02:16:54.027Z,851.92
2018-12-15T02:17:54.024Z,851.97
2018-12-15T02:18:54.031Z,851.97
2018-12-15T02:19:54.020Z,851.96
2018-12-15T02:20:53.966Z,851.97
2018-12-15T02:21:53.964Z,851.92
2018-12-15T02:22:53.975Z,851.95
2018-12-15T02:23:53.979Z,852.00
2018-12-15T02:24:53.951Z,851.97
2018-12-15T02:25:53.958Z,851.92
2018-12-15T02:26:53.912Z,851.95
2018-12-15T02:27:53.937Z,851.96
2018-12-15T02:28:53.928Z,851.94
2018-12-15T02:29:53.892Z,851.88
2018-12-15T02:30:53.959Z,851.93
2018-12-15T02:31:53.859Z,851.89
2018-12-15T02:32:53.863Z,851.87
2018-12-15T02:33:53.839Z,851.87
2018-12-15T02:34:53.854Z,851.84
2018-12-15T02:35:53.866Z,851.86
2018-12-15T02:36:53.854Z,851.90
2018-12-15T02:37:53.808Z,851.89
2018-12-15T02:38:53.788Z,851.89
2018-12-15T02:39:53.817Z,851.90
2018-12-15T02:40:53.815Z,851.93
2018-12-15T02:41:53.771Z,851.92
2018-12-15T02:42:53.746Z,851.89
2018-12-15T02:43:53.736Z,851.85
2018-12-15T02:44:53.754Z,851.92
2018-12-15T02:45:53.768Z,851.86
2018-12-15T02:46:53.729Z,851.84
2018-12-15T02:47:53.698Z,851.86
2018-12-15T02:48:53.687Z,851.89
2018-12-15T02:49:53.682Z,851.90
2018-12-15T02:50:53.710Z,851.88
2018-12-15T02:51:53.699Z,851.85
2018-12-15T02:52:53.648Z,851.88
2018-12-15T02:53:53.643Z,851.89
2018-12-15T02:54:53.669Z,851.89
2018-12-15T02:55:53.661Z,851.96
2018-12-15T02:56:53.665Z,851.91
2018-12-15T02:57:53.596Z,851.93
2018-12-15T02:58:53.604Z,851.89
2018-12-15T02:59:53.610Z,851.96
2018-12-15T03:00:53.611Z,851.92
2018-12-15T03:01:53.589Z,851.96
2018-12-15T03:02:53.546Z,851.94
2018-12-15T03:03:53.548Z,851.95
2018-12-15T03:04:53.612Z,851.91
2018-12-15T03:05:53.558Z,851.90
2018-12-15T03:06:53.521Z,851.91
2018-12-15T03:07:53.558Z,851.88
2018-12-15T03:08:53.530Z,851.92
2018-12-15T03:09:53.494Z,851.87
2018-12-15T03:10:53.475Z,851.88
2018-12-15T03:11:53.472Z,851.93
2018-12-15T03:12:53.475Z,851.93
2018-12-15T03:13:53.534Z,851.90
2018-12-15T03:14:53.442Z,851.89
2018-12-15T03:15:53.417Z,851.88
2018-12-15T03:16:53.406Z,851.84
2018-12-15T03:17:53.415Z,851.88
2018-12-15T03:18:53.437Z,851.90
2018-12-15T03:19:53.399Z,851.91
2018-12-15T03:20:53.383Z,851.92
2018-12-15T03:21:53.374Z,851.96
2018-12-15T03:22:53.359Z,851.93
2018-12-15T03:23:53.403Z,851.97
2018-12-15T03:24:53.379Z,852.00
2018-12-15T03:25:53.351Z,852.01
2018-12-15T03:26:53.308Z,851.99
2018-12-15T03:27:53.309Z,851.96
2018-12-15T03:28:53.319Z,852.04
2018-12-15T03:29:53.297Z,852.02
2018-12-15T03:30:53.288Z,852.06
2018-12-15T03:31:53.282Z,852.06
2018-12-15T03:32:53.259Z,852.07
2018-12-15T03:33:53.271Z,852.10
2018-12-15T03:34:53.235Z,852.06
2018-12-15T03:35:53.220Z,852.04
2018-12-15T03:36:53.204Z,852.02
2018-12-15T03:37:53.199Z,852.06
2018-12-15T03:38:53.225Z,852.10
2018-12-15T03:39:53.191Z,852.06
2018-12-15T03:40:53.183Z,852.09
2018-12-15T03:41:53.170Z,852.09
2018-12-15T03:42:53.151Z,852.05
2018-12-15T03:43:53.165Z,852.04
2018-12-15T03:44:53.124Z,852.03
2018-12-15T03:45:53.118Z,852.07
2018-12-15T03:46:53.126Z,852.09
2018-12-15T03:47:56.410Z,852.03
2018-12-15T03:48:53.168Z,852.06
2018-12-15T03:49:53.112Z,851.99
2018-12-15T03:50:53.075Z,852.01
2018-12-15T03:51:53.073Z,852.01
2018-12-15T03:52:53.057Z,852.05
2018-12-15T03:53:53.029Z,852.05
2018-12-15T03:54:53.034Z,852.09
2018-12-15T03:55:53.042Z,852.10
2018-12-15T03:56:53.008Z,852.12
2018-12-15T03:57:53.005Z,852.15
2018-12-15T03:58:52.995Z,852.18
2018-12-15T03:59:52.985Z,852.20
2018-12-15T04:00:53.175Z,852.20
2018-12-15T04:01:52.995Z,852.22
2018-12-15T04:02:52.976Z,852.26
2018-12-15T04:03:52.937Z,852.25
2018-12-15T04:04:52.928Z,852.27
2018-12-15T04:05:52.947Z,852.24
2018-12-15T04:06:52.909Z,852.25
2018-12-15T04:07:52.901Z,852.22
2018-12-15T04:08:52.893Z,852.23
2018-12-15T04:09:52.877Z,852.31
2018-12-15T04:10:52.901Z,852.30
2018-12-15T04:11:52.914Z,852.31
2018-12-15T04:12:52.852Z,852.29
2018-12-15T04:13:52.840Z,852.34
2018-12-15T04:14:52.821Z,852.32
2018-12-15T04:15:52.824Z,852.32
2018-12-15T04:16:52.849Z,852.34
2018-12-15T04:17:52.805Z,852.41
2018-12-15T04:18:52.779Z,852.36
2018-12-15T04:19:52.782Z,852.35
2018-12-15T04:20:52.762Z,852.33
2018-12-15T04:21:52.800Z,852.33
2018-12-15T04:22:52.750Z,852.36
2018-12-15T04:23:52.747Z,852.31
2018-12-15T04:24:52.779Z,852.32
2018-12-15T04:25:52.716Z,852.33
2018-12-15T04:26:52.738Z,852.33
2018-12-15T04:27:52.695Z,852.34
2018-12-15T04:28:52.682Z,852.32
2018-12-15T04:29:52.691Z,852.33
2018-12-15T04:30:52.677Z,852.36
2018-12-15T04:31:52.691Z,852.40
2018-12-15T04:32:52.660Z,852.36
2018-12-15T04:33:52.642Z,852.39
2018-12-15T04:34:52.622Z,852.40
2018-12-15T04:35:52.610Z,852.39
2018-12-15T04:36:52.671Z,852.46
2018-12-15T04:37:52.603Z,852.44
2018-12-15T04:38:52.606Z,852.46
2018-12-15T04:39:52.577Z,852.47
2018-12-15T04:40:52.570Z,852.47
2018-12-15T04:41:52.623Z,852.45
2018-12-15T04:42:52.541Z,852.49
2018-12-15T04:43:52.537Z,852.47
2018-12-15T04:44:52.568Z,852.47
2018-12-15T04:45:52.510Z,852.46
2018-12-15T04:46:52.534Z,852.51
2018-12-15T04:47:52.514Z,852.46
2018-12-15T04:48:52.527Z,852.49
2018-12-15T04:49:52.524Z,852.49
2018-12-15T04:50:52.484Z,852.45
2018-12-15T04:51:52.446Z,852.50
2018-12-15T04:52:52.477Z,852.49
2018-12-15T04:53:52.445Z,852.49
2018-12-15T04:54:52.454Z,852.47
2018-12-15T04:55:52.457Z,852.47
2018-12-15T04:56:52.401Z,852.44
2018-12-15T04:57:52.402Z,852.49
2018-12-15T04:58:52.410Z,852.49
2018-12-15T04:59:52.404Z,852.48
2018-12-15T05:00:52.360Z,852.45
2018-12-15T05:01:52.349Z,852.47
2018-12-15T05:02:52.356Z,852.47
2018-12-15T05:03:52.354Z,852.47
2018-12-15T05:04:52.373Z,852.47
2018-12-15T05:05:52.318Z,852.46
2018-12-15T05:06:52.296Z,852.46
2018-12-15T05:07:52.284Z,852.42
2018-12-15T05:08:52.289Z,852.43
2018-12-15T05:09:52.267Z,852.43
2018-12-15T05:10:52.304Z,852.45
2018-12-15T05:11:52.255Z,852.45
2018-12-15T05:12:52.239Z,852.45
2018-12-15T05:13:52.227Z,852.47
2018-12-15T05:14:52.268Z,852.46
2018-12-15T05:15:52.263Z,852.47
2018-12-15T05:16:52.192Z,852.45
2018-12-15T05:17:52.189Z,852.47
2018-12-15T05:18:52.181Z,852.46
2018-12-15T05:19:52.205Z,852.47
2018-12-15T05:20:52.205Z,852.47
2018-12-15T05:21:52.247Z,852.50
2018-12-15T05:22:52.147Z,852.51
2018-12-15T05:23:52.124Z,852.51
2018-12-15T05:24:52.118Z,852.52
2018-12-15T05:25:52.152Z,852.55
2018-12-15T05:26:52.131Z,852.53
2018-12-15T05:27:52.171Z,852.53
2018-12-15T05:28:52.075Z,852.55
2018-12-15T05:29:52.088Z,852.55
2018-12-15T05:30:52.069Z,852.54
2018-12-15T05:31:52.053Z,852.56
2018-12-15T05:32:52.087Z,852.55
2018-12-15T05:33:52.117Z,852.57
2018-12-15T05:34:52.073Z,852.50
2018-12-15T05:35:52.020Z,852.44
2018-12-15T05:36:52.018Z,852.47
2018-12-15T05:37:52.045Z,852.48
2018-12-15T05:38:51.990Z,852.48
2018-12-15T05:39:51.976Z,852.43
2018-12-15T05:40:51.962Z,852.44
2018-12-15T05:41:51.935Z,852.42
2018-12-15T05:42:51.971Z,852.42
2018-12-15T05:43:51.939Z,852.44
2018-12-15T05:44:51.916Z,852.38
2018-12-15T05:45:51.911Z,852.42
2018-12-15T05:46:51.899Z,852.39
2018-12-15T05:47:51.948Z,852.38
2018-12-15T05:48:51.885Z,852.43
2018-12-15T05:49:51.868Z,852.43
2018-12-15T05:50:51.849Z,852.41
2018-12-15T05:51:51.839Z,852.41
2018-12-15T05:52:51.865Z,852.42
2018-12-15T05:53:51.850Z,852.39
2018-12-15T05:54:51.815Z,852.41
2018-12-15T05:55:51.799Z,852.41
2018-12-15T05:56:51.813Z,852.35
2018-12-15T05:57:51.835Z,852.40
2018-12-15T05:58:51.785Z,852.40
2018-12-15T05:59:51.773Z,852.39
2018-12-15T06:00:51.751Z,852.47
2018-12-15T06:01:51.752Z,852.47
2018-12-15T06:02:51.776Z,852.43
2018-12-15T06:03:51.720Z,852.51
2018-12-15T06:04:51.726Z,852.50
2018-12-15T06:05:51.697Z,852.50
2018-12-15T06:06:51.688Z,852.50
2018-12-15T06:07:51.720Z,852.52
2018-12-15T06:08:51.672Z,852.50
2018-12-15T06:09:51.671Z,852.50
2018-12-15T06:10:51.669Z,852.51
2018-12-15T06:11:51.688Z,852.52
2018-12-15T06:12:51.693Z,852.53
2018-12-15T06:13:51.623Z,852.56
2018-12-15T06:14:51.622Z,852.62
2018-12-15T06:15:51.656Z,852.65
2018-12-15T06:16:51.606Z,852.66
2018-12-15T06:17:51.575Z,852.67
2018-12-15T06:18:51.585Z,852.63
2018-12-15T06:19:51.563Z,852.64
2018-12-15T06:20:51.593Z,852.61
2018-12-15T06:21:51.555Z,852.65
2018-12-15T06:22:51.531Z,852.59
2018-12-15T06:23:51.532Z,852.58
2018-12-15T06:24:51.520Z,852.62
2018-12-15T06:25:51.546Z,852.57
2018-12-15T06:26:51.497Z,852.63
2018-12-15T06:27:51.495Z,852.61
2018-12-15T06:28:51.466Z,852.68
2018-12-15T06:29:51.470Z,852.64
2018-12-15T06:30:51.482Z,852.63
2018-12-15T06:31:51.443Z,852.68
2018-12-15T06:32:51.425Z,852.68
2018-12-15T06:33:51.414Z,852.71
2018-12-15T06:34:51.403Z,852.65
2018-12-15T06:35:51.427Z,852.68
2018-12-15T06:36:51.396Z,852.73
2018-12-15T06:37:51.379Z,852.68
2018-12-15T06:38:51.378Z,852.69
2018-12-15T06:39:51.354Z,852.71
2018-12-15T06:40:51.382Z,852.74
2018-12-15T06:41:51.346Z,852.72
2018-12-15T06:42:51.325Z,852.72
2018-12-15T06:43:51.320Z,852.77
2018-12-15T06:44:51.310Z,852.73
2018-12-15T06:45:51.330Z,852.71
2018-12-15T06:46:51.289Z,852.72
2018-12-15T06:47:51.274Z,852.73
2018-12-15T06:48:51.261Z,852.69
2018-12-15T06:49:51.252Z,852.70
2018-12-15T06:50:51.298Z,852.74
2018-12-15T06:51:51.271Z,852.74
2018-12-15T06:52:51.221Z,852.77
2018-12-15T06:53:51.215Z,852.76
2018-12-15T06:54:51.208Z,852.78
2018-12-15T06:55:51.229Z,852.81
2018-12-15T06:56:51.200Z,852.78
2018-12-15T06:57:51.179Z,852.81
2018-12-15T06:58:51.167Z,852.83
2018-12-15T06:59:51.161Z,852.85
2018-12-15T07:00:51.193Z,852.86
2018-12-15T07:01:51.139Z,852.89
2018-12-15T07:02:51.126Z,852.85
2018-12-15T07:03:51.111Z,852.90
2018-12-15T07:04:51.104Z,852.89
2018-12-15T07:05:51.128Z,852.89
2018-12-15T07:06:51.096Z,852.85
2018-12-15T07:07:51.070Z,852.90
2018-12-15T07:08:51.117Z,852.89
2018-12-15T07:09:51.067Z,852.93
2018-12-15T07:10:51.040Z,852.97
2018-12-15T07:11:51.033Z,852.98
2018-12-15T07:12:51.091Z,852.99
2018-12-15T07:13:51.009Z,852.96
2018-12-15T07:14:51.005Z,853.00
2018-12-15T07:15:50.988Z,853.00
2018-12-15T07:16:51.023Z,852.98
2018-12-15T07:17:50.983Z,853.04
2018-12-15T07:18:50.972Z,853.03
2018-12-15T07:19:50.959Z,853.05
2018-12-15T07:20:50.950Z,853.06
2018-12-15T07:21:50.963Z,853.03
2018-12-15T07:22:50.931Z,853.02
2018-12-15T07:23:50.916Z,853.00
2018-12-15T07:24:50.896Z,853.00
2018-12-15T07:25:51.110Z,853.01
2018-12-15T07:26:50.879Z,853.04
2018-12-15T07:27:50.881Z,853.01
2018-12-15T07:28:50.858Z,852.98
2018-12-15T07:29:50.848Z,852.99
2018-12-15T07:30:50.940Z,853.01
2018-12-15T07:31:50.830Z,852.97
2018-12-15T07:32:50.818Z,852.98
2018-12-15T07:33:50.821Z,852.98
2018-12-15T07:34:50.799Z,853.00
2018-12-15T07:35:50.820Z,853.01
2018-12-15T07:36:50.784Z,852.99
2018-12-15T07:37:50.771Z,852.98
2018-12-15T07:38:50.761Z,853.01
2018-12-15T07:39:50.766Z,852.96
2018-12-15T07:40:50.780Z,852.96
2018-12-15T07:41:50.742Z,852.95
2018-12-15T07:42:50.720Z,852.97
2018-12-15T07:43:50.720Z,852.96
2018-12-15T07:44:50.708Z,852.97
2018-12-15T07:45:50.724Z,852.97
2018-12-15T07:46:50.685Z,853.03
2018-12-15T07:47:50.704Z,852.96
2018-12-15T07:48:51.552Z,853.00
2018-12-15T07:49:50.641Z,853.03
2018-12-15T07:50:50.690Z,853.03
2018-12-15T07:51:50.666Z,853.03
2018-12-15T07:52:50.616Z,853.03
2018-12-15T07:53:50.647Z,853.04
2018-12-15T07:54:50.613Z,853.04
2018-12-15T07:55:50.584Z,853.05
2018-12-15T07:56:50.640Z,852.99
2018-12-15T07:57:50.578Z,853.01
2018-12-15T07:58:50.555Z,853.04
2018-12-15T07:59:50.562Z,853.00
2018-12-15T08:00:50.549Z,853.07
2018-12-15T08:01:50.572Z,853.04
2018-12-15T08:02:50.535Z,853.10
2018-12-15T08:03:50.525Z,853.04
2018-12-15T08:04:50.502Z,853.01
2018-12-15T08:05:50.488Z,853.09
2018-12-15T08:06:50.520Z,853.09
2018-12-15T08:07:50.475Z,853.09
2018-12-15T08:08:50.451Z,853.13
2018-12-15T08:09:50.441Z,853.10
2018-12-15T08:10:50.435Z,853.07
2018-12-15T08:11:50.465Z,853.14
2018-12-15T08:12:50.429Z,853.11
2018-12-15T08:13:50.438Z,853.14
2018-12-15T08:14:50.433Z,853.11
2018-12-15T08:15:50.396Z,853.07
2018-12-15T08:16:50.421Z,853.10
2018-12-15T08:17:50.372Z,853.10
2018-12-15T08:18:50.381Z,853.09
2018-12-15T08:19:50.341Z,853.08
2018-12-15T08:20:50.335Z,853.07
2018-12-15T08:21:50.379Z,853.09
2018-12-15T08:22:50.331Z,853.07
2018-12-15T08:23:50.374Z,853.07
2018-12-15T08:24:50.328Z,853.04
2018-12-15T08:25:50.283Z,853.04
2018-12-15T08:26:50.285Z,853.07
2018-12-15T08:27:50.264Z,853.08
2018-12-15T08:28:50.246Z,853.08
2018-12-15T08:29:50.296Z,853.09
2018-12-15T08:30:50.233Z,853.11
2018-12-15T08:31:50.223Z,853.13
2018-12-15T08:32:50.207Z,853.14
2018-12-15T08:33:50.201Z,853.13
2018-12-15T08:34:50.225Z,853.17
2018-12-15T08:35:50.192Z,853.22
2018-12-15T08:36:50.181Z,853.21
2018-12-15T08:37:50.168Z,853.23
2018-12-15T08:38:50.152Z,853.24
2018-12-15T08:39:50.202Z,853.24
2018-12-15T08:40:50.135Z,853.27
2018-12-15T08:41:50.117Z,853.26
2018-12-15T08:42:50.108Z,853.27
2018-12-15T08:43:50.097Z,853.28
2018-12-15T08:44:50.120Z,853.25
2018-12-15T08:45:50.194Z,853.29
2018-12-15T08:46:50.066Z,853.29
2018-12-15T08:47:50.058Z,853.31
2018-12-15T08:48:50.052Z,853.31
2018-12-15T08:49:50.044Z,853.31
2018-12-15T08:50:50.077Z,853.37
2018-12-15T08:51:50.071Z,853.33
2018-12-15T08:52:50.013Z,853.34
2018-12-15T08:53:50.046Z,853.35
2018-12-15T08:54:49.982Z,853.37
2018-12-15T08:55:49.981Z,853.36
2018-12-15T08:56:49.998Z,853.38
2018-12-15T08:57:49.961Z,853.43
2018-12-15T08:58:49.948Z,853.37
2018-12-15T08:59:49.946Z,853.42
2018-12-15T09:00:49.919Z,853.37
2018-12-15T09:01:49.964Z,853.43
2018-12-15T09:02:49.910Z,853.43
2018-12-15T09:03:49.892Z,853.39
2018-12-15T09:04:49.881Z,853.45
2018-12-15T09:05:49.874Z,853.47
2018-12-15T09:06:49.931Z,853.43
2018-12-15T09:07:49.858Z,853.38
2018-12-15T09:08:49.841Z,853.39
2018-12-15T09:09:49.843Z,853.39
2018-12-15T09:10:49.838Z,853.39
2018-12-15T09:11:49.848Z,853.36
2018-12-15T09:12:50.617Z,853.39
2018-12-15T09:13:49.794Z,853.38
2018-12-15T09:14:49.783Z,853.39
2018-12-15T09:15:49.775Z,853.41
2018-12-15T09:16:49.799Z,853.33
2018-12-15T09:17:49.792Z,853.35
2018-12-15T09:18:49.757Z,853.35
2018-12-15T09:19:49.780Z,853.28
2018-12-15T09:20:49.767Z,853.33
2018-12-15T09:21:49.761Z,853.35
2018-12-15T09:22:49.764Z,853.33
2018-12-15T09:23:49.715Z,853.30
2018-12-15T09:24:49.685Z,853.24
2018-12-15T09:25:49.687Z,853.23
2018-12-15T09:26:49.696Z,853.20
2018-12-15T09:27:49.699Z,853.27
2018-12-15T09:28:49.660Z,853.25
2018-12-15T09:29:49.670Z,853.20
2018-12-15T09:30:49.647Z,853.23
2018-12-15T09:31:49.624Z,853.24
2018-12-15T09:32:49.677Z,853.27
2018-12-15T09:33:49.630Z,853.27
2018-12-15T09:34:49.606Z,853.23
2018-12-15T09:35:49.575Z,853.26
2018-12-15T09:36:49.560Z,853.23
2018-12-15T09:37:49.581Z,853.22
2018-12-15T09:38:49.580Z,853.20
2018-12-15T09:39:49.548Z,853.24
2018-12-15T09:40:49.518Z,853.28
2018-12-15T09:41:49.511Z,853.25
2018-12-15T09:42:49.524Z,853.27
2018-12-15T09:43:49.553Z,853.25
2018-12-15T09:44:49.535Z,853.30
2018-12-15T09:45:49.474Z,853.21
2018-12-15T09:46:49.477Z,853.24
2018-12-15T09:47:49.446Z,853.25
2018-12-15T09:48:49.488Z,853.18
2018-12-15T09:49:49.461Z,853.14
2018-12-15T09:50:49.452Z,853.17
2018-12-15T09:51:49.413Z,853.11
2018-12-15T09:52:49.404Z,853.10
2018-12-15T09:53:49.456Z,853.11
2018-12-15T09:54:49.433Z,853.18
2018-12-15T09:55:49.368Z,853.09
2018-12-15T09:56:49.368Z,853.07
2018-12-15T09:57:49.343Z,853.13
2018-12-15T09:58:49.347Z,853.08
2018-12-15T09:59:49.373Z,853.08
2018-12-15T10:00:49.316Z,853.01
2018-12-15T10:01:49.311Z,853.05
2018-12-15T10:02:49.314Z,853.03
2018-12-15T10:03:49.297Z,852.97
2018-12-15T10:04:49.317Z,852.99
2018-12-15T10:05:49.300Z,853.02
2018-12-15T10:06:49.290Z,853.05
2018-12-15T10:07:49.458Z,852.98
2018-12-15T10:08:49.237Z,852.99
2018-12-15T10:09:49.219Z,853.01
2018-12-15T10:10:50.133Z,852.98
2018-12-15T10:11:49.219Z,853.01
2018-12-15T10:12:49.190Z,852.95
2018-12-15T10:13:49.172Z,852.95
2018-12-15T10:14:49.202Z,852.91
2018-12-15T10:15:49.189Z,852.92
2018-12-15T10:16:49.144Z,852.94
2018-12-15T10:17:49.145Z,852.88
2018-12-15T10:18:49.138Z,852.92
2018-12-15T10:19:49.136Z,852.93
2018-12-15T10:20:49.135Z,852.89
2018-12-15T10:21:49.104Z,852.92
2018-12-15T10:22:49.136Z,852.89
2018-12-15T10:23:49.102Z,852.89
2018-12-15T10:24:49.062Z,852.86
2018-12-15T10:25:49.050Z,852.83
2018-12-15T10:26:49.098Z,852.84
2018-12-15T10:27:49.045Z,852.85
2018-12-15T10:28:49.077Z,852.79
2018-12-15T10:29:49.713Z,852.85
2018-12-15T10:30:49.008Z,852.80
2018-12-15T10:31:49.007Z,852.80
2018-12-15T10:32:49.561Z,852.80
2018-12-15T10:33:48.978Z,852.77
2018-12-15T10:34:48.966Z,852.79
2018-12-15T10:35:48.946Z,852.75
2018-12-15T10:36:48.950Z,852.74
2018-12-15T10:37:48.936Z,852.71
2018-12-15T10:38:48.922Z,852.71
2018-12-15T10:39:48.927Z,852.71
2018-12-15T10:40:49.169Z,852.77
2018-12-15T10:41:49.244Z,852.76
2018-12-15T10:42:49.560Z,852.78
2018-12-15T10:43:49.498Z,852.77
2018-12-15T10:44:49.656Z,852.75
2018-12-15T10:45:48.838Z,852.75
2018-12-15T10:46:49.158Z,852.71
2018-12-15T10:47:49.252Z,852.70
2018-12-15T10:48:48.816Z,852.69
2018-12-15T10:49:48.810Z,852.70
2018-12-15T10:50:48.824Z,852.68
2018-12-15T10:51:48.774Z,852.64
2018-12-15T10:52:48.775Z,852.65
2018-12-15T10:53:48.767Z,852.63
2018-12-15T10:54:48.804Z,852.61
2018-12-15T10:55:48.737Z,852.60
2018-12-15T10:56:48.781Z,852.63
2018-12-15T10:57:48.714Z,852.59
2018-12-15T10:58:48.696Z,852.58
2018-12-15T10:59:48.746Z,852.63
2018-12-15T11:00:48.717Z,852.63
2018-12-15T11:01:48.667Z,852.63
2018-12-15T11:02:48.658Z,852.64
2018-12-15T11:03:48.686Z,852.65
2018-12-15T11:04:48.677Z,852.57
2018-12-15T11:05:48.644Z,852.62
2018-12-15T11:06:48.617Z,852.60
2018-12-15T11:07:48.606Z,852.59
2018-12-15T11:08:48.767Z,852.57
2018-12-15T11:09:49.533Z,852.56
2018-12-15T11:10:48.576Z,852.56
2018-12-15T11:11:48.561Z,852.59
2018-12-15T11:12:48.552Z,852.57
2018-12-15T11:13:48.563Z,852.59
2018-12-15T11:14:48.565Z,852.59
2018-12-15T11:15:49.511Z,852.58
2018-12-15T11:16:48.519Z,852.56
2018-12-15T11:17:48.500Z,852.62
2018-12-15T11:18:48.507Z,852.62
2018-12-15T11:19:48.518Z,852.63
2018-12-15T11:20:48.511Z,852.60
2018-12-15T11:21:48.466Z,852.60
2018-12-15T11:22:48.447Z,852.61
2018-12-15T11:23:48.444Z,852.60
2018-12-15T11:24:48.443Z,852.59
2018-12-15T11:25:48.463Z,852.54
2018-12-15T11:26:48.522Z,852.56
2018-12-15T11:27:48.593Z,852.59
2018-12-15T11:28:48.412Z,852.57
2018-12-15T11:29:48.396Z,852.58
2018-12-15T11:30:48.468Z,852.58
2018-12-15T11:31:48.357Z,852.60
2018-12-15T11:32:48.379Z,852.59
2018-12-15T11:33:48.349Z,852.53
2018-12-15T11:34:48.332Z,852.54
2018-12-15T11:57:45.800Z,852.30
2018-12-15T11:58:27.994Z,852.30
2018-12-15T11:59:26.997Z,852.30
2018-12-15T12:00:26.980Z,852.27
2018-12-15T12:01:26.970Z,852.23
2018-12-15T12:02:31.832Z,852.30
2018-12-15T12:03:27.987Z,852.26
2018-12-15T12:04:26.932Z,852.22
2018-12-15T12:05:26.926Z,852.24
2018-12-15T12:06:26.912Z,852.21
2018-12-15T12:07:26.900Z,852.21
2018-12-15T12:08:26.900Z,852.20
2018-12-15T12:09:26.935Z,852.17
2018-12-15T12:10:26.865Z,852.16
2018-12-15T12:11:26.861Z,852.21
2018-12-15T12:12:26.852Z,852.16
2018-12-15T12:13:26.844Z,852.17
2018-12-15T12:14:26.834Z,852.12
2018-12-15T12:15:26.876Z,852.15
2018-12-15T12:16:26.804Z,852.10
2018-12-15T12:17:26.828Z,852.15
2018-12-15T12:18:26.784Z,852.10
2018-12-15T12:19:26.784Z,852.13
2018-12-15T12:20:26.774Z,852.15
2018-12-15T12:21:26.816Z,852.15
2018-12-15T12:22:26.891Z,852.08
2018-12-15T12:23:26.733Z,852.11
2018-12-15T12:24:26.886Z,852.14
2018-12-15T12:25:26.725Z,852.09
2018-12-15T12:26:27.655Z,852.11
2018-12-15T12:27:26.701Z,852.10
2018-12-15T12:28:26.759Z,852.05
2018-12-15T12:29:27.653Z,852.06
2018-12-15T12:30:26.668Z,852.05
2018-12-15T12:31:26.713Z,851.94
2018-12-15T12:32:26.644Z,852.01
2018-12-15T12:33:26.652Z,852.04
2018-12-15T12:34:26.675Z,852.05
2018-12-15T12:35:26.629Z,852.05
2018-12-15T12:36:26.600Z,852.03
2018-12-15T12:37:26.636Z,852.04
2018-12-15T12:38:26.589Z,852.06
2018-12-15T12:39:26.573Z,852.07
2018-12-15T12:40:26.630Z,852.03
2018-12-15T12:41:27.164Z,852.07
2018-12-15T12:42:26.543Z,852.08
2018-12-15T12:43:26.557Z,852.04
2018-12-15T12:44:26.512Z,852.08
2018-12-15T12:45:26.538Z,852.08
2018-12-15T12:46:26.492Z,852.01
2018-12-15T12:47:26.529Z,852.07
2018-12-15T12:48:26.505Z,852.03
2018-12-15T12:49:26.459Z,851.99
2018-12-15T12:50:26.474Z,851.95